• Join FlightAware (Why Join?)
  • Login
  • US Flag 
11:27PM EDT


 

Airport Tracker/Info


-or-


 

Live Flight TrackerFlight Track Log ✈ NASA967 ✈ 07-Nov-2013 ✈ KEFD - KEFD

Flight Track Log - Related Links

Times and Time Zones

All times are in EST time to prevent confusion due to time zone crossing. See the NASA967 flight status page for this flight to view local times or setup timezone preferences in your user account.

Time Position Orientation Groundspeed Altitude Reporting Facility
EST Latitude Longitude Course Direction KTS MPH feet Rate Location/Type
06:52PM 29.6258 -95.1628 58° Northeast 255 293 1,100  Level Houston Center
06:52PM 29.6508 -95.1164 58° Northeast 280 322 2,300 780 Climbing Houston Center
06:53PM 29.6667 -95.0933 52° Northeast 240 276 2,000 3,480 Descending Houston Center
06:53PM 29.5683 -95.0642 166° South 382 440 6,300 5,100 Climbing Houston Center
06:54PM 29.5478 -95.0689 191° South 441 507 7,300 5,400 Climbing Houston Center
06:54PM 29.4908 -95.1336 225° Southwest 364 419 11,800 5,220 Climbing Houston Center
06:55PM 29.4772 -95.1547 233° Southwest 370 426 12,700 2,160 Climbing Houston Center
06:55PM 29.4236 -95.2475 236° Southwest 416 479 14,000 1,200 Climbing Houston Center
06:56PM 29.4139 -95.2631 234° Southwest 396 456 14,000  Level Houston Center
06:56PM 29.3575 -95.3489 233° Southwest 441 507 14,000  Level Houston Center
06:57PM 29.3275 -95.3986 235° Southwest 434 499 14,000  Level Houston Center
06:58PM 29.2586 -95.5136 236° Southwest 436 502 14,000  Level Houston Center
06:59PM 29.1875 -95.6258 234° Southwest 436 502 14,100  Climbing Houston Center
07:00PM 29.1167 -95.7394 235° Southwest 437 503 14,000 -60 Descending Houston Center
07:01PM 29.0489 -95.8544 236° Southwest 436 502 14,000 -60 Level Houston Center
07:02PM 28.9661 -95.9853 234° Southwest 437 503 13,900 -1,080 Descending Houston Center
07:03PM 28.9389 -96.1108 256° West 408 470 11,800 -2,280 Descending Houston Center
07:04PM 28.9281 -96.2219 264° West 366 421 9,200 -2,460 Descending Houston Center
07:05PM 28.9192 -96.3181 264° West 322 371 6,800 -2,220 Descending Houston Center
07:06PM 28.9083 -96.4136 263° West 305 351 4,700 -1,860 Descending Houston Center
07:07PM 28.8781 -96.5014 249° West 307 353 3,000 -900 Descending Houston Center
07:08PM 28.8194 -96.5836 231° Southwest 286 329 2,900  Descending Houston Center
07:09PM 28.7772 -96.6508 234° Southwest 274 315 3,000  Climbing Houston Center
07:10PM 28.7331 -96.7222 235° Southwest 270 311 2,900 -60 Descending Houston Center
07:11PM 28.7483 -96.7911 284° West 259 298 2,900 -540 Level Houston Center
07:12PM 28.7833 -96.8350 312° West 216 249 1,900 -960 Descending Houston Center
07:13PM 28.8156 -96.8756 312° West 190 219 1,000 -780 Descending Houston Center
07:14PM 28.8492 -96.9169 313° West 179 206 300 480 Descending Houston Center
07:15PM 28.8975 -96.9764 313° West 214 246 2,000 1,260 Climbing Houston Center
07:16PM 28.9481 -97.0267 319° Northwest 238 274 3,000 480 Climbing Houston Center
07:18PM 29.0036 -96.9767 38° Northeast 252 290 3,000  Level Houston Center
07:19PM 28.9817 -96.9111 111° Southeast 252 290 3,000  Level Houston Center
07:20PM 28.9344 -96.8456 129° Southeast 260 299 3,000  Level Houston Center
07:21PM 28.8575 -96.8114 159° South 285 328 3,000  Level Houston Center
07:22PM 28.7792 -96.7631 152° Southeast 277 319 3,000  Level Houston Center
07:23PM 28.7517 -96.6964 115° Southeast 257 296 3,000  Level Houston Center
07:24PM 28.7233 -96.7558 241° Southwest 265 305 3,000 -600 Level Houston Center
07:25PM 28.7664 -96.8158 309° West 251 289 1,800 -840 Descending Houston Center
07:26PM 28.8078 -96.8661 313° West 236 272 1,300 -720 Descending Houston Center
07:27PM 28.8372 -96.9025 313° West 190 219 400 -240 Descending Houston Center
07:28PM 28.8694 -96.9422 313° West 174 200 900 1,200 Climbing Houston Center
07:29PM 28.9344 -97.0231 313° West 252 290 3,000 2,400 Climbing Houston Center
07:30PM 29.0061 -97.0850 323° Northwest 295 339 5,900 2,460 Climbing Houston Center
07:31PM 29.0919 -97.0442 23° Northeast 328 377 8,100 2,460 Climbing Houston Center
07:32PM 29.1364 -96.9264 67° East 398 458 11,000 1,380 Climbing Houston Center
07:33PM 29.1539 -96.7964 81° East 421 484 11,000 480 Level Houston Center
07:34PM 29.1831 -96.6433 78° East 419 482 12,000 420 Climbing Houston Center
07:35PM 29.2103 -96.5117 77° East 426 490 11,900 -60 Descending Houston Center
07:36PM 29.2367 -96.3803 77° East 428 493 11,900  Level Houston Center
07:37PM 29.2711 -96.1972 78° East 412 474 11,900  Level Houston Center
07:38PM 29.2867 -96.1247 76° East 411 473 11,900 60 Level Houston Center
07:38PM 29.2947 -96.0797 78° East 409 471 12,000 60 Climbing Houston Center
07:39PM 29.3547 -95.9747 57° Northeast 402 463 12,000  Level Houston Center
07:40PM 29.3781 -95.8911 72° East 403 464 12,100  Climbing Houston Center
07:40PM 29.3758 -95.8575 94° East 368 423 12,000 -600 Descending Houston Center
07:41PM 29.3717 -95.7739 93° East 374 430 11,500 -1,020 Descending Houston Center
07:41PM 29.3697 -95.7383 94° East 379 436 11,000 -1,860 Descending Houston Center
07:42PM 29.3644 -95.6336 93° East 368 423 9,600 -1,620 Descending Houston Center
07:42PM 29.3633 -95.6217 96° East 359 413 9,400 -1,620 Descending Houston Center
07:43PM 29.3550 -95.5075 95° East 339 390 7,800 -1,260 Descending Houston Center
07:44PM 29.3494 -95.4253 94° East 321 369 7,000 -840 Descending Houston Center
07:44PM 29.3483 -95.4100 95° East 292 336 7,000 -240 Level Houston Center
07:45PM 29.3408 -95.3325 96° East 299 344 6,800 -420 Descending Houston Center
07:45PM 29.3394 -95.3128 95° East 324 373 6,600 -1,980 Descending Houston Center
07:46PM 29.3328 -95.2200 95° East 274 315 4,700 -1,800 Descending Houston Center
07:47PM 29.3544 -95.1600 67° East 220 253 3,200 -1,740 Descending Houston Center
07:47PM 29.3594 -95.1592 North 251 289 3,000 -1,200 Descending Houston Center
07:48PM 29.4156 -95.1597 360° North 219 252 2,000 -960 Descending Houston Center
07:48PM 29.4200 -95.1597 360° North 220 253 2,000  Level Houston Center
07:49PM 29.4767 -95.1619 358° North 198 228 2,000  Level Houston Center
07:50PM 29.4792 -95.1608 21° North 216 249 2,000 -720 Level Houston Center
07:50PM 29.5292 -95.1628 358° North 161 185 1,300 -720 Descending Houston Center
07:51PM 29.5306 -95.1622 19° North 197 227 1,300 -720 Level Houston Center
07:51PM 29.5692 -95.1625 360° North 142 163 600 -720 Descending Houston Center
07:52PM 29.5686 -95.1631 221° Southwest 159 183 600 -360 Level Houston Center
07:53PM 29.6081 -95.1639 359° North 148 170 200 180 Descending Houston Center
07:53PM 29.6261 -95.1653 356° North 224 258 800 2,700 Climbing Houston Center
07:53PM 29.6364 -95.1422 63° Northeast 266 306 1,600 780 Climbing Houston Center
07:54PM 29.6053 -95.1322 164° South 281 323 1,600 -540 Level Houston Center
07:54PM 29.5689 -95.1386 189° South 215 247 1,100 -1,200 Descending Houston Center
07:55PM 29.5736 -95.1611 284° West 200 230 400 -120 Descending Houston Center
07:56PM 29.6261 -95.1653 356° North 236 272 1,000 -300 Climbing Houston Center
07:56PM 29.6189 -95.1633 167° South 167 192 100 720 Descending Houston Center
07:56PM 29.6061 -95.1317 115° Southeast 270 311 1,600 360 Climbing Houston Center
07:58PM 29.5667 -95.1581 210° Southwest 183 211 800 -300 Descending Houston Center
07:59PM 29.6303 -95.1647 355° North 242 278 1,000 420 Climbing Houston Center
08:00PM 29.6228 -95.1319 105° East 285 328 1,700 180 Climbing Houston Center
08:01PM 29.5558 -95.1331 181° South 221 254 1,300 -420 Descending Houston Center